createdAt,value
2017-01-17T00:00:30.189Z,0
2017-01-17T00:01:39.470Z,0
2017-01-17T00:02:49.187Z,0
2017-01-17T00:03:58.517Z,0
2017-01-17T00:05:08.233Z,0
2017-01-17T00:06:17.949Z,0
2017-01-17T00:07:28.116Z,0
2017-01-17T00:08:38.273Z,0
2017-01-17T00:09:48.482Z,0
2017-01-17T00:10:58.196Z,0
2017-01-17T00:12:07.472Z,0
2017-01-17T00:13:17.626Z,0
2017-01-17T00:14:27.342Z,0
2017-01-17T00:15:36.672Z,0
2017-01-17T00:16:46.391Z,0
2017-01-17T00:17:55.674Z,0
2017-01-17T00:19:05.831Z,0
2017-01-17T00:20:16.420Z,0
2017-01-17T00:21:26.189Z,0
2017-01-17T00:22:35.474Z,0
2017-01-17T00:23:45.184Z,0
2017-01-17T00:24:55.341Z,0
2017-01-17T00:26:05.493Z,0
2017-01-17T00:27:15.359Z,0
2017-01-17T00:28:25.072Z,0
2017-01-17T00:29:35.225Z,0
2017-01-17T00:30:44.510Z,0
2017-01-17T00:31:55.103Z,0
2017-01-17T00:33:05.304Z,0
2017-01-17T00:34:15.458Z,0
2017-01-17T00:35:25.642Z,0
2017-01-17T00:36:35.368Z,0
2017-01-17T00:37:44.649Z,0
2017-01-17T00:38:55.286Z,0
2017-01-17T00:40:04.591Z,0
2017-01-17T00:41:15.176Z,0
2017-01-17T00:42:25.333Z,0
2017-01-17T00:43:35.046Z,0
2017-01-17T00:44:45.256Z,0
2017-01-17T00:45:54.544Z,0
2017-01-17T00:47:04.701Z,0
2017-01-17T00:48:15.298Z,0
2017-01-17T00:49:25.451Z,0
2017-01-17T00:50:34.880Z,0
2017-01-17T00:51:44.162Z,0
2017-01-17T00:52:53.439Z,0
2017-01-17T00:54:03.148Z,0
2017-01-17T00:55:12.865Z,0
2017-01-17T00:56:23.070Z,0
2017-01-17T00:57:33.665Z,0
2017-01-17T00:58:43.383Z,0
2017-01-17T00:59:53.537Z,0
2017-01-17T01:01:03.254Z,0
2017-01-17T01:02:14.047Z,0
2017-01-17T01:03:23.328Z,0
2017-01-17T01:04:33.485Z,0
2017-01-17T01:05:43.203Z,0
2017-01-17T01:06:52.923Z,0
2017-01-17T01:08:02.693Z,0
2017-01-17T01:09:12.434Z,0
2017-01-17T01:10:21.719Z,0
2017-01-17T01:11:31.440Z,0
2017-01-17T01:12:41.157Z,0
2017-01-17T01:13:50.926Z,0
2017-01-17T01:15:00.215Z,0
2017-01-17T01:16:09.496Z,0
2017-01-17T01:17:19.205Z,0
2017-01-17T01:18:29.367Z,0
2017-01-17T01:19:39.603Z,0
2017-01-17T01:20:49.758Z,0
2017-01-17T01:21:59.910Z,0
2017-01-17T01:23:10.063Z,0
2017-01-17T01:24:20.220Z,0
2017-01-17T01:25:30.573Z,0
2017-01-17T01:26:40.294Z,0
2017-01-17T01:27:49.571Z,0
2017-01-17T01:28:58.872Z,0
2017-01-17T01:30:09.030Z,0
2017-01-17T01:31:18.796Z,0
2017-01-17T01:32:28.952Z,0
2017-01-17T01:33:38.673Z,0
2017-01-17T01:34:48.826Z,0
2017-01-17T01:35:59.419Z,0
2017-01-17T01:37:10.060Z,0
2017-01-17T01:38:20.213Z,0
2017-01-17T01:39:30.367Z,0
2017-01-17T01:40:40.111Z,0
2017-01-17T01:41:50.275Z,0
2017-01-17T01:43:00.930Z,0
2017-01-17T01:44:11.083Z,0
2017-01-17T01:45:20.808Z,0
2017-01-17T01:46:30.962Z,0
2017-01-17T01:47:40.678Z,0
2017-01-17T01:48:51.423Z,0
2017-01-17T01:50:01.145Z,0
2017-01-17T01:51:11.733Z,0
2017-01-17T01:52:21.455Z,0
2017-01-17T01:53:31.612Z,0
2017-01-17T01:54:41.821Z,0
2017-01-17T01:55:52.418Z,0
2017-01-17T01:57:01.703Z,0
2017-01-17T01:58:11.861Z,0
2017-01-17T01:59:21.138Z,0
2017-01-17T02:00:31.367Z,0
2017-01-17T02:01:41.084Z,0
2017-01-17T02:02:51.682Z,0
2017-01-17T02:04:01.418Z,0
2017-01-17T02:05:11.572Z,0
2017-01-17T02:06:20.905Z,0
2017-01-17T02:07:30.630Z,0
2017-01-17T02:08:39.911Z,0
2017-01-17T02:09:49.632Z,0
2017-01-17T02:10:59.797Z,0
2017-01-17T02:12:09.574Z,0
2017-01-17T02:13:19.291Z,0
2017-01-17T02:14:29.453Z,0
2017-01-17T02:15:39.626Z,0
2017-01-17T02:16:49.339Z,0
2017-01-17T02:17:59.100Z,0
2017-01-17T02:19:09.261Z,0
2017-01-17T02:20:19.011Z,0
2017-01-17T02:21:28.727Z,0
2017-01-17T02:22:38.885Z,0
2017-01-17T02:23:48.210Z,0
2017-01-17T02:24:57.931Z,0
2017-01-17T02:26:08.084Z,0
2017-01-17T02:27:18.242Z,0
2017-01-17T02:28:27.966Z,0
2017-01-17T02:29:37.292Z,0
2017-01-17T02:30:46.573Z,0
2017-01-17T02:31:55.859Z,0
2017-01-17T02:33:06.459Z,0
2017-01-17T02:34:16.616Z,0
2017-01-17T02:35:26.381Z,0
2017-01-17T02:36:36.971Z,0
2017-01-17T02:37:47.569Z,0
2017-01-17T02:38:58.165Z,0
2017-01-17T02:40:08.330Z,0
2017-01-17T02:41:18.979Z,0
2017-01-17T02:42:29.136Z,0
2017-01-17T02:43:38.870Z,0
2017-01-17T02:44:48.591Z,0
2017-01-17T02:45:58.316Z,0
2017-01-17T02:47:08.101Z,0
2017-01-17T02:48:18.262Z,0
2017-01-17T02:49:27.983Z,0
2017-01-17T02:50:37.705Z,0
2017-01-17T02:51:47.861Z,0
2017-01-17T02:52:59.003Z,0
2017-01-17T02:54:08.336Z,0
2017-01-17T02:55:17.625Z,0
2017-01-17T02:56:27.791Z,0
2017-01-17T02:57:37.072Z,0
2017-01-17T02:58:46.849Z,0
2017-01-17T02:59:56.575Z,0
2017-01-17T03:01:06.743Z,0
2017-01-17T03:02:16.028Z,0
2017-01-17T03:03:26.214Z,0
2017-01-17T03:04:36.867Z,0
2017-01-17T03:05:46.148Z,0
2017-01-17T03:06:55.881Z,0
2017-01-17T03:08:05.598Z,0
2017-01-17T03:09:15.312Z,0
2017-01-17T03:10:25.117Z,0
2017-01-17T03:11:35.318Z,0
2017-01-17T03:12:45.491Z,0
2017-01-17T03:13:55.220Z,0
2017-01-17T03:15:04.941Z,0
2017-01-17T03:16:14.271Z,0
2017-01-17T03:17:24.000Z,0
2017-01-17T03:18:33.289Z,0
2017-01-17T03:19:43.458Z,0
2017-01-17T03:20:54.067Z,0
2017-01-17T03:22:04.306Z,0
2017-01-17T03:23:13.610Z,0
2017-01-17T03:24:23.371Z,0
2017-01-17T03:25:32.653Z,0
2017-01-17T03:26:42.818Z,0
2017-01-17T03:27:53.043Z,0
2017-01-17T03:29:03.644Z,0
2017-01-17T03:30:13.809Z,0
2017-01-17T03:31:23.979Z,0
2017-01-17T03:32:34.140Z,0
2017-01-17T03:33:45.229Z,0
2017-01-17T03:34:54.519Z,0
2017-01-17T03:36:03.808Z,0
2017-01-17T03:37:13.541Z,0
2017-01-17T03:38:22.829Z,0
2017-01-17T03:39:32.599Z,0
2017-01-17T03:40:42.768Z,0
2017-01-17T03:41:52.497Z,0
2017-01-17T03:43:02.219Z,0
2017-01-17T03:44:12.383Z,0
2017-01-17T03:45:22.597Z,0
2017-01-17T03:46:32.326Z,0
2017-01-17T03:47:42.051Z,0
2017-01-17T03:48:51.781Z,0
2017-01-17T03:50:01.498Z,0
2017-01-17T03:51:10.835Z,0
2017-01-17T03:52:20.572Z,0
2017-01-17T03:53:30.301Z,0
2017-01-17T03:54:40.030Z,0
2017-01-17T03:55:49.308Z,0
2017-01-17T03:56:59.517Z,0
2017-01-17T03:58:08.806Z,0
2017-01-17T03:59:18.531Z,0
2017-01-17T04:00:27.817Z,0
2017-01-17T04:01:38.006Z,0
2017-01-17T04:02:48.227Z,0
2017-01-17T04:03:57.964Z,0
2017-01-17T04:05:07.681Z,0
2017-01-17T04:06:18.286Z,0
2017-01-17T04:07:27.576Z,0
2017-01-17T04:08:37.349Z,0
2017-01-17T04:09:47.102Z,0
2017-01-17T04:10:57.256Z,0
2017-01-17T04:12:06.982Z,0
2017-01-17T04:13:16.714Z,0
2017-01-17T04:14:26.495Z,0
2017-01-17T04:15:36.668Z,0
2017-01-17T04:16:47.298Z,0
2017-01-17T04:17:56.583Z,0
2017-01-17T04:19:06.748Z,0
2017-01-17T04:20:16.965Z,0
2017-01-17T04:21:26.683Z,0
2017-01-17T04:22:35.968Z,0
2017-01-17T04:23:45.693Z,0
2017-01-17T04:24:55.410Z,0
2017-01-17T04:26:04.743Z,0
2017-01-17T04:27:14.460Z,0
2017-01-17T04:28:25.062Z,0
2017-01-17T04:29:34.791Z,0
2017-01-17T04:30:44.511Z,0
2017-01-17T04:31:54.305Z,0
2017-01-17T04:33:04.034Z,0
2017-01-17T04:34:14.196Z,0
2017-01-17T04:35:23.477Z,0
2017-01-17T04:36:34.074Z,0
2017-01-17T04:37:44.274Z,0
2017-01-17T04:38:54.000Z,0
2017-01-17T04:40:04.158Z,0
2017-01-17T04:41:13.443Z,0
2017-01-17T04:42:23.160Z,0
2017-01-17T04:43:32.937Z,0
2017-01-17T04:44:43.530Z,0
2017-01-17T04:45:53.264Z,0
2017-01-17T04:47:02.994Z,0
2017-01-17T04:48:12.270Z,0
2017-01-17T04:49:22.043Z,0
2017-01-17T04:50:31.765Z,0
2017-01-17T04:51:41.494Z,0
2017-01-17T04:52:50.775Z,0
2017-01-17T04:54:00.496Z,0
2017-01-17T04:55:10.717Z,0
2017-01-17T04:56:20.891Z,0
2017-01-17T04:57:31.084Z,0
2017-01-17T04:58:40.813Z,0
2017-01-17T04:59:50.982Z,0
2017-01-17T05:01:00.312Z,0
2017-01-17T05:02:10.476Z,0
2017-01-17T05:03:20.202Z,0
2017-01-17T05:04:29.483Z,0
2017-01-17T05:05:38.800Z,0
2017-01-17T05:06:49.018Z,0
2017-01-17T05:07:58.751Z,0
2017-01-17T05:09:08.912Z,0
2017-01-17T05:10:18.193Z,0
2017-01-17T05:11:27.918Z,0
2017-01-17T05:12:37.683Z,0
2017-01-17T05:13:46.972Z,4
2017-01-17T05:14:56.706Z,0
2017-01-17T05:16:07.298Z,0
2017-01-17T05:17:17.908Z,0
2017-01-17T05:18:27.678Z,0
2017-01-17T05:19:36.958Z,0
2017-01-17T05:20:46.684Z,0
2017-01-17T05:21:56.853Z,0
2017-01-17T05:23:06.578Z,0
2017-01-17T05:24:16.356Z,0
2017-01-17T05:25:26.548Z,0
2017-01-17T05:26:35.837Z,0
2017-01-17T05:27:45.990Z,0
2017-01-17T05:28:55.712Z,4
2017-01-17T05:30:05.933Z,0
2017-01-17T05:31:15.213Z,0
2017-01-17T05:32:25.823Z,0
2017-01-17T05:33:35.548Z,4
2017-01-17T05:34:45.265Z,0
2017-01-17T05:35:55.047Z,0
2017-01-17T05:37:05.207Z,0
2017-01-17T05:38:14.933Z,0
2017-01-17T05:39:25.534Z,0
2017-01-17T05:40:35.247Z,0
2017-01-17T05:41:45.491Z,0
2017-01-17T05:42:55.661Z,0
2017-01-17T05:44:05.822Z,0
2017-01-17T05:45:15.540Z,0
2017-01-17T05:46:25.701Z,0
2017-01-17T05:47:35.474Z,0
2017-01-17T05:48:45.195Z,0
2017-01-17T05:49:54.920Z,0
2017-01-17T05:51:04.646Z,0
2017-01-17T05:52:14.363Z,0
2017-01-17T05:53:24.576Z,0
2017-01-17T05:54:35.173Z,0
2017-01-17T05:55:45.774Z,0
2017-01-17T05:56:55.508Z,0
2017-01-17T05:58:04.812Z,0
2017-01-17T05:59:14.585Z,0
2017-01-17T06:00:23.867Z,0
2017-01-17T06:01:34.488Z,0
2017-01-17T06:02:43.765Z,0
2017-01-17T06:03:54.371Z,0
2017-01-17T06:05:04.140Z,0
2017-01-17T06:06:14.745Z,0
2017-01-17T06:07:24.494Z,0
2017-01-17T06:08:34.646Z,0
2017-01-17T06:09:44.368Z,0
2017-01-17T06:10:54.574Z,0
2017-01-17T06:12:04.290Z,0
2017-01-17T06:13:13.576Z,0
2017-01-17T06:14:23.737Z,0
2017-01-17T06:15:33.466Z,0
2017-01-17T06:16:43.271Z,0
2017-01-17T06:17:53.025Z,0
2017-01-17T06:19:03.194Z,0
2017-01-17T06:20:12.919Z,0
2017-01-17T06:21:22.204Z,0
2017-01-17T06:22:31.985Z,0
2017-01-17T06:23:41.695Z,0
2017-01-17T06:24:51.000Z,0
2017-01-17T06:26:01.601Z,0
2017-01-17T06:27:11.770Z,0
2017-01-17T06:28:21.987Z,0
2017-01-17T06:29:32.149Z,0
2017-01-17T06:30:42.306Z,0
2017-01-17T06:31:52.035Z,0
2017-01-17T06:33:01.752Z,0
2017-01-17T06:34:11.525Z,0
2017-01-17T06:35:22.138Z,0
2017-01-17T06:36:31.864Z,0
2017-01-17T06:37:42.025Z,0
2017-01-17T06:38:51.742Z,0
2017-01-17T06:40:02.400Z,0
2017-01-17T06:41:12.564Z,0
2017-01-17T06:42:22.729Z,0
2017-01-17T06:43:32.903Z,0
2017-01-17T06:44:42.624Z,0
2017-01-17T06:45:52.397Z,0
2017-01-17T06:47:02.558Z,0
2017-01-17T06:48:12.723Z,0
2017-01-17T06:49:22.888Z,4
2017-01-17T06:50:32.610Z,0
2017-01-17T06:51:41.964Z,4
2017-01-17T06:52:51.252Z,4
2017-01-17T06:54:00.977Z,4
2017-01-17T06:55:10.706Z,8
2017-01-17T06:56:20.024Z,4
2017-01-17T06:57:29.792Z,8
2017-01-17T06:58:40.402Z,8
2017-01-17T06:59:50.127Z,8
2017-01-17T07:01:00.292Z,12
2017-01-17T07:02:10.013Z,16
2017-01-17T07:03:19.811Z,16
2017-01-17T07:04:29.532Z,20
2017-01-17T07:05:39.257Z,20
2017-01-17T07:06:48.991Z,24
2017-01-17T07:07:59.151Z,28
2017-01-17T07:09:08.928Z,32
2017-01-17T07:10:18.646Z,32
2017-01-17T07:11:29.247Z,36
2017-01-17T07:12:38.972Z,40
2017-01-17T07:13:49.136Z,44
2017-01-17T07:14:59.786Z,52
2017-01-17T07:16:09.947Z,64
2017-01-17T07:17:20.113Z,68
2017-01-17T07:18:30.718Z,64
2017-01-17T07:19:39.999Z,72
2017-01-17T07:20:50.217Z,80
2017-01-17T07:21:59.941Z,88
2017-01-17T07:23:09.671Z,92
2017-01-17T07:24:19.820Z,96
2017-01-17T07:25:29.105Z,100
2017-01-17T07:26:38.878Z,96
2017-01-17T07:27:48.615Z,96
2017-01-17T07:28:58.357Z,104
2017-01-17T07:30:08.085Z,100
2017-01-17T07:31:17.811Z,100
2017-01-17T07:32:27.585Z,116
2017-01-17T07:33:37.321Z,120
2017-01-17T07:34:46.598Z,132
2017-01-17T07:35:56.768Z,148
2017-01-17T07:37:06.940Z,160
2017-01-17T07:38:17.162Z,168
2017-01-17T07:39:26.451Z,172
2017-01-17T07:40:36.596Z,196
2017-01-17T07:41:46.321Z,212
2017-01-17T07:42:56.490Z,216
2017-01-17T07:44:06.268Z,220
2017-01-17T07:45:16.421Z,240
2017-01-17T07:46:27.022Z,264
2017-01-17T07:47:37.619Z,280
2017-01-17T07:48:47.340Z,296
2017-01-17T07:49:56.673Z,336
2017-01-17T07:51:07.289Z,388
2017-01-17T07:52:17.019Z,412
2017-01-17T07:53:27.185Z,352
2017-01-17T07:54:36.474Z,300
2017-01-17T07:55:46.239Z,312
2017-01-17T07:56:55.548Z,336
2017-01-17T07:58:04.829Z,348
2017-01-17T07:59:14.110Z,332
2017-01-17T08:00:23.839Z,308
2017-01-17T08:01:34.052Z,348
2017-01-17T08:02:43.765Z,416
2017-01-17T08:03:53.927Z,492
2017-01-17T08:05:04.092Z,460
2017-01-17T08:06:14.685Z,468
2017-01-17T08:07:24.464Z,424
2017-01-17T08:08:34.179Z,424
2017-01-17T08:09:43.456Z,512
2017-01-17T08:10:53.189Z,592
2017-01-17T08:12:04.131Z,652
2017-01-17T08:13:16.260Z,620
2017-01-17T08:14:26.433Z,612
2017-01-17T08:15:38.314Z,576
2017-01-17T08:16:49.220Z,628
2017-01-17T08:17:59.272Z,596
2017-01-17T08:19:10.306Z,712
2017-01-17T08:20:20.390Z,792
2017-01-17T08:21:30.124Z,800
2017-01-17T08:22:40.297Z,912
2017-01-17T08:23:50.022Z,988
2017-01-17T08:24:59.799Z,988
2017-01-17T08:26:09.108Z,1056
2017-01-17T08:27:19.274Z,1048
2017-01-17T08:28:28.555Z,1040
2017-01-17T08:29:39.148Z,1124
2017-01-17T08:30:48.917Z,1220
2017-01-17T08:31:59.075Z,1392
2017-01-17T08:33:08.795Z,1344
2017-01-17T08:34:18.077Z,1240
2017-01-17T08:35:27.358Z,1232
2017-01-17T08:36:36.687Z,1288
2017-01-17T08:37:46.000Z,1332
2017-01-17T08:38:55.725Z,1416
2017-01-17T08:40:05.882Z,1460
2017-01-17T08:41:16.487Z,1336
2017-01-17T08:42:27.137Z,1524
2017-01-17T08:43:36.414Z,1492
2017-01-17T08:44:46.583Z,1088
2017-01-17T08:45:55.868Z,1128
2017-01-17T08:47:05.149Z,1248
2017-01-17T08:48:14.482Z,928
2017-01-17T08:49:24.655Z,968
2017-01-17T08:50:34.820Z,1088
2017-01-17T08:51:44.553Z,1204
2017-01-17T08:52:54.274Z,948
2017-01-17T08:54:04.048Z,764
2017-01-17T08:55:14.652Z,776
2017-01-17T08:56:24.814Z,748
2017-01-17T08:57:34.103Z,708
2017-01-17T08:58:43.404Z,836
2017-01-17T08:59:54.065Z,1220
2017-01-17T09:01:03.350Z,1036
2017-01-17T09:02:13.540Z,1124
2017-01-17T09:03:23.710Z,1284
2017-01-17T09:04:33.437Z,976
2017-01-17T09:05:43.647Z,1084
2017-01-17T09:06:52.928Z,996
2017-01-17T09:08:03.077Z,1004
2017-01-17T09:09:13.690Z,1060
2017-01-17T09:10:24.300Z,1108
2017-01-17T09:11:34.225Z,1156
2017-01-17T09:12:44.382Z,1364
2017-01-17T09:13:54.551Z,1712
2017-01-17T09:15:04.288Z,1356
2017-01-17T09:16:14.014Z,1272
2017-01-17T09:17:23.347Z,1532
2017-01-17T09:18:33.076Z,1400
2017-01-17T09:19:42.797Z,1264
2017-01-17T09:20:52.078Z,1296
2017-01-17T09:22:03.115Z,1552
2017-01-17T09:23:12.884Z,1724
2017-01-17T09:24:23.054Z,1644
2017-01-17T09:25:32.351Z,1492
2017-01-17T09:26:41.632Z,1596
2017-01-17T09:27:51.797Z,1652
2017-01-17T09:29:01.130Z,1780
2017-01-17T09:30:11.731Z,1996
2017-01-17T09:31:21.012Z,2180
2017-01-17T09:32:30.737Z,2120
2017-01-17T09:33:40.023Z,2376
2017-01-17T09:34:50.232Z,2640
2017-01-17T09:35:59.957Z,2340
2017-01-17T09:37:10.114Z,2120
2017-01-17T09:38:20.268Z,2088
2017-01-17T09:39:30.433Z,1804
2017-01-17T09:40:40.654Z,1560
2017-01-17T09:41:50.399Z,1612
2017-01-17T09:43:00.560Z,1836
2017-01-17T09:44:10.281Z,1952
2017-01-17T09:45:20.011Z,2116
2017-01-17T09:46:30.224Z,2304
2017-01-17T09:47:39.505Z,2344
2017-01-17T09:48:49.234Z,2236
2017-01-17T09:49:58.559Z,2404
2017-01-17T09:51:08.745Z,2348
2017-01-17T09:52:18.077Z,2364
2017-01-17T09:53:28.234Z,2116
2017-01-17T09:54:37.520Z,2092
2017-01-17T09:55:47.677Z,2332
2017-01-17T09:56:57.882Z,2356
2017-01-17T09:58:08.095Z,2356
2017-01-17T09:59:18.256Z,2328
2017-01-17T10:00:28.413Z,2332
2017-01-17T10:01:38.142Z,2368
2017-01-17T10:02:48.308Z,2068
2017-01-17T10:03:57.697Z,1804
2017-01-17T10:05:07.439Z,1584
2017-01-17T10:06:17.163Z,1408
2017-01-17T10:07:26.893Z,1268
2017-01-17T10:08:37.058Z,1252
2017-01-17T10:09:47.714Z,1472
2017-01-17T10:10:57.876Z,1848
2017-01-17T10:12:07.169Z,1896
2017-01-17T10:13:17.339Z,1872
2017-01-17T10:14:27.067Z,1904
2017-01-17T10:15:37.281Z,1928
2017-01-17T10:16:46.570Z,1836
2017-01-17T10:17:56.727Z,1704
2017-01-17T10:19:06.008Z,1528
2017-01-17T10:20:15.294Z,1448
2017-01-17T10:21:24.627Z,1588
2017-01-17T10:22:34.352Z,1748
2017-01-17T10:23:43.637Z,1716
2017-01-17T10:24:53.794Z,1964
2017-01-17T10:26:03.079Z,2268
2017-01-17T10:27:13.292Z,2344
2017-01-17T10:28:23.450Z,2396
2017-01-17T10:29:33.603Z,2740
2017-01-17T10:30:42.888Z,3156
2017-01-17T10:31:52.165Z,2388
2017-01-17T10:33:01.494Z,2160
2017-01-17T10:34:11.651Z,2360
2017-01-17T10:35:20.933Z,2380
2017-01-17T10:36:30.654Z,2240
2017-01-17T10:37:39.937Z,2128
2017-01-17T10:38:50.592Z,2172
2017-01-17T10:39:59.877Z,2184
2017-01-17T10:41:10.035Z,1932
2017-01-17T10:42:19.316Z,1668
2017-01-17T10:43:29.481Z,1592
2017-01-17T10:44:39.694Z,1620
2017-01-17T10:45:49.859Z,1724
2017-01-17T10:46:59.140Z,1800
2017-01-17T10:48:09.742Z,1944
2017-01-17T10:49:19.459Z,1992
2017-01-17T10:50:29.676Z,2008
2017-01-17T10:51:39.405Z,2092
2017-01-17T10:52:49.119Z,2120
2017-01-17T10:53:59.276Z,2080
2017-01-17T10:55:08.557Z,2428
2017-01-17T10:56:19.214Z,2856
2017-01-17T10:57:28.943Z,3120
2017-01-17T10:58:39.131Z,2668
2017-01-17T10:59:49.306Z,2420
2017-01-17T11:00:59.027Z,2252
2017-01-17T11:02:09.277Z,2076
2017-01-17T11:03:19.009Z,1828
2017-01-17T11:04:28.294Z,1756
2017-01-17T11:05:37.575Z,1872
2017-01-17T11:06:47.737Z,1896
2017-01-17T11:07:57.954Z,1792
2017-01-17T11:09:08.123Z,1632
2017-01-17T11:10:17.868Z,1508
2017-01-17T11:11:27.590Z,1472
2017-01-17T11:12:36.870Z,1512
2017-01-17T11:13:46.644Z,1540
2017-01-17T11:14:56.369Z,1532
2017-01-17T11:16:06.538Z,1584
2017-01-17T11:17:16.267Z,1616
2017-01-17T11:18:25.984Z,1820
2017-01-17T11:19:36.350Z,1908
2017-01-17T11:20:46.075Z,1860
2017-01-17T11:21:56.244Z,1912
2017-01-17T11:23:05.525Z,2044
2017-01-17T11:24:15.691Z,2244
2017-01-17T11:25:25.908Z,2264
2017-01-17T11:26:36.069Z,2196
2017-01-17T11:27:45.350Z,2128
2017-01-17T11:28:55.512Z,2344
2017-01-17T11:30:04.793Z,2420
2017-01-17T11:31:14.570Z,2444
2017-01-17T11:32:24.719Z,2284
2017-01-17T11:33:35.324Z,2136
2017-01-17T11:34:44.617Z,2016
2017-01-17T11:35:54.338Z,1856
2017-01-17T11:37:04.112Z,1788
2017-01-17T11:38:14.269Z,1652
2017-01-17T11:39:24.874Z,1636
2017-01-17T11:40:34.156Z,1564
2017-01-17T11:41:43.881Z,1556
2017-01-17T11:42:54.086Z,1712
2017-01-17T11:44:03.363Z,1728
2017-01-17T11:45:13.082Z,1764
2017-01-17T11:46:22.809Z,1852
2017-01-17T11:47:32.530Z,1876
2017-01-17T11:48:42.304Z,1816
2017-01-17T11:49:52.029Z,1792
2017-01-17T11:51:02.198Z,1848
2017-01-17T11:52:11.927Z,1792
2017-01-17T11:53:21.648Z,1972
2017-01-17T11:54:31.427Z,1876
2017-01-17T11:55:41.607Z,1848
2017-01-17T11:56:51.767Z,1772
2017-01-17T11:58:01.485Z,1708
2017-01-17T11:59:10.766Z,1708
2017-01-17T12:00:20.980Z,1716
2017-01-17T12:01:31.148Z,1616
2017-01-17T12:02:40.873Z,1600
2017-01-17T12:03:50.595Z,1568
2017-01-17T12:05:00.756Z,1632
2017-01-17T12:06:10.093Z,1688
2017-01-17T12:07:19.821Z,1676
2017-01-17T12:08:29.983Z,1640
2017-01-17T12:09:40.148Z,1628
2017-01-17T12:10:49.870Z,1640
2017-01-17T12:12:00.086Z,1696
2017-01-17T12:13:09.816Z,1780
2017-01-17T12:14:19.529Z,1852
2017-01-17T12:15:28.806Z,1904
2017-01-17T12:16:38.970Z,1832
2017-01-17T12:17:49.184Z,1744
2017-01-17T12:18:58.901Z,1632
2017-01-17T12:20:08.626Z,1480
2017-01-17T12:21:18.356Z,1580
2017-01-17T12:22:27.637Z,1736
2017-01-17T12:23:36.965Z,1840
2017-01-17T12:24:46.715Z,1892
2017-01-17T12:25:55.996Z,1876
2017-01-17T12:27:05.721Z,1912
2017-01-17T12:28:14.994Z,1928
2017-01-17T12:29:25.203Z,1984
2017-01-17T12:30:34.480Z,2100
2017-01-17T12:31:43.762Z,2220
2017-01-17T12:32:53.487Z,2220
2017-01-17T12:34:03.224Z,2184
2017-01-17T12:35:13.437Z,2252
2017-01-17T12:36:23.178Z,2208
2017-01-17T12:37:32.912Z,2052
2017-01-17T12:38:43.073Z,2020
2017-01-17T12:39:53.674Z,1976
2017-01-17T12:41:03.471Z,1900
2017-01-17T12:42:12.752Z,1844
2017-01-17T12:43:22.473Z,1844
2017-01-17T12:44:32.198Z,1884
2017-01-17T12:45:42.379Z,1952
2017-01-17T12:46:52.152Z,1996
2017-01-17T12:48:02.761Z,1988
2017-01-17T12:49:12.910Z,1916
2017-01-17T12:50:22.627Z,1836
2017-01-17T12:51:32.360Z,1748
2017-01-17T12:52:42.132Z,1748
2017-01-17T12:53:51.865Z,1740
2017-01-17T12:55:02.032Z,1692
2017-01-17T12:56:11.316Z,1660
2017-01-17T12:57:20.601Z,1708
2017-01-17T12:58:30.825Z,1708
2017-01-17T12:59:40.994Z,1668
2017-01-17T13:00:51.595Z,1640
2017-01-17T13:02:01.316Z,1528
2017-01-17T13:03:11.036Z,1456
2017-01-17T13:04:21.246Z,1416
2017-01-17T13:05:30.963Z,1360
2017-01-17T13:06:41.127Z,1332
2017-01-17T13:07:51.284Z,1336
2017-01-17T13:09:01.001Z,1364
2017-01-17T13:10:11.659Z,1388
2017-01-17T13:11:20.943Z,1348
2017-01-17T13:12:30.664Z,1324
2017-01-17T13:13:40.825Z,1360
2017-01-17T13:14:51.026Z,1404
2017-01-17T13:16:01.231Z,1432
2017-01-17T13:17:10.512Z,1456
2017-01-17T13:18:20.261Z,1472
2017-01-17T13:19:30.858Z,1488
2017-01-17T13:20:41.462Z,1588
2017-01-17T13:21:52.108Z,1676
2017-01-17T13:23:01.829Z,1708
2017-01-17T13:24:11.114Z,1716
2017-01-17T13:25:21.279Z,1660
2017-01-17T13:26:31.452Z,1500
2017-01-17T13:27:42.096Z,1352
2017-01-17T13:28:51.813Z,1340
2017-01-17T13:30:01.534Z,1360
2017-01-17T13:31:12.165Z,1348
2017-01-17T13:32:21.448Z,1396
2017-01-17T13:33:32.533Z,1452
2017-01-17T13:34:43.142Z,1436
2017-01-17T13:35:52.871Z,1360
2017-01-17T13:37:02.595Z,1316
2017-01-17T13:38:12.325Z,1312
2017-01-17T13:39:22.102Z,1304
2017-01-17T13:40:32.258Z,1240
2017-01-17T13:41:41.975Z,1236
2017-01-17T13:42:51.693Z,1300
2017-01-17T13:44:01.853Z,1344
2017-01-17T13:45:12.490Z,1376
2017-01-17T13:46:22.655Z,1440
2017-01-17T13:47:32.384Z,1488
2017-01-17T13:48:42.101Z,1524
2017-01-17T13:49:51.818Z,1488
2017-01-17T13:51:01.587Z,1428
2017-01-17T13:52:11.748Z,1372
2017-01-17T13:53:21.037Z,1316
2017-01-17T13:54:31.202Z,1284
2017-01-17T13:55:41.367Z,1212
2017-01-17T13:56:52.032Z,1156
2017-01-17T13:58:02.209Z,1164
2017-01-17T13:59:11.499Z,1164
2017-01-17T14:00:21.215Z,1108
2017-01-17T14:01:30.500Z,1080
2017-01-17T14:02:39.861Z,1100
2017-01-17T14:03:50.018Z,1108
2017-01-17T14:05:00.171Z,1064
2017-01-17T14:06:10.340Z,1000
2017-01-17T14:07:20.500Z,960
2017-01-17T14:08:30.278Z,928
2017-01-17T14:09:40.883Z,908
2017-01-17T14:10:51.040Z,908
2017-01-17T14:12:00.316Z,920
2017-01-17T14:13:10.477Z,952
2017-01-17T14:14:20.690Z,972
2017-01-17T14:15:29.972Z,952
2017-01-17T14:16:40.140Z,892
2017-01-17T14:17:49.865Z,864
2017-01-17T14:19:00.034Z,844
2017-01-17T14:20:10.795Z,832
2017-01-17T14:21:20.075Z,836
2017-01-17T14:22:30.236Z,864
2017-01-17T14:23:39.513Z,868
2017-01-17T14:24:49.242Z,860
2017-01-17T14:25:58.579Z,852
2017-01-17T14:27:08.308Z,836
2017-01-17T14:28:18.461Z,844
2017-01-17T14:29:27.742Z,836
2017-01-17T14:30:37.903Z,800
2017-01-17T14:31:48.152Z,764
2017-01-17T14:32:58.325Z,744
2017-01-17T14:34:07.607Z,728
2017-01-17T14:35:16.884Z,696
2017-01-17T14:36:26.601Z,648
2017-01-17T14:37:37.246Z,608
2017-01-17T14:38:46.964Z,572
2017-01-17T14:39:56.245Z,552
2017-01-17T14:41:05.966Z,548
2017-01-17T14:42:16.128Z,568
2017-01-17T14:43:25.461Z,572
2017-01-17T14:44:35.190Z,564
2017-01-17T14:45:45.359Z,564
2017-01-17T14:46:54.648Z,568
2017-01-17T14:48:04.378Z,576
2017-01-17T14:49:13.714Z,588
2017-01-17T14:50:23.424Z,596
2017-01-17T14:51:33.153Z,616
2017-01-17T14:52:43.755Z,632
2017-01-17T14:53:53.492Z,624
2017-01-17T14:55:04.594Z,604
2017-01-17T14:56:14.767Z,580
2017-01-17T14:57:24.928Z,576
2017-01-17T14:58:35.090Z,592
2017-01-17T14:59:44.375Z,584
2017-01-17T15:00:53.709Z,556
2017-01-17T15:02:03.434Z,512
2017-01-17T15:03:14.039Z,472
2017-01-17T15:04:23.764Z,440
2017-01-17T15:05:33.485Z,416
2017-01-17T15:06:43.703Z,388
2017-01-17T15:07:53.864Z,348
2017-01-17T15:09:03.590Z,320
2017-01-17T15:10:13.755Z,304
2017-01-17T15:11:23.037Z,272
2017-01-17T15:12:33.249Z,244
2017-01-17T15:13:43.011Z,216
2017-01-17T15:14:52.732Z,200
2017-01-17T15:16:02.454Z,192
2017-01-17T15:17:11.735Z,188
2017-01-17T15:18:21.996Z,192
2017-01-17T15:19:32.297Z,188
2017-01-17T15:20:41.579Z,172
2017-01-17T15:21:50.860Z,156
2017-01-17T15:23:00.582Z,140
2017-01-17T15:24:10.359Z,124
2017-01-17T15:25:20.517Z,112
2017-01-17T15:26:30.261Z,100
2017-01-17T15:27:39.538Z,92
2017-01-17T15:28:49.264Z,88
2017-01-17T15:29:59.046Z,80
2017-01-17T15:31:08.770Z,72
2017-01-17T15:32:19.368Z,60
2017-01-17T15:33:29.093Z,56
2017-01-17T15:34:39.246Z,52
2017-01-17T15:35:49.015Z,44
2017-01-17T15:36:59.169Z,40
2017-01-17T15:38:08.450Z,40
2017-01-17T15:39:18.622Z,40
2017-01-17T15:40:28.353Z,32
2017-01-17T15:41:37.706Z,28
2017-01-17T15:42:47.427Z,28
2017-01-17T15:43:57.624Z,28
2017-01-17T15:45:07.354Z,24
2017-01-17T15:46:17.083Z,20
2017-01-17T15:47:26.413Z,20
2017-01-17T15:48:36.578Z,20
2017-01-17T15:49:46.300Z,16
2017-01-17T15:50:56.461Z,16
2017-01-17T15:52:06.179Z,16
2017-01-17T15:53:15.956Z,12
2017-01-17T15:54:25.242Z,12
2017-01-17T15:55:34.959Z,12
2017-01-17T15:56:45.128Z,8
2017-01-17T15:57:55.742Z,8
2017-01-17T15:59:05.970Z,4
2017-01-17T16:00:15.684Z,8
2017-01-17T16:01:25.841Z,4
2017-01-17T16:02:35.123Z,4
2017-01-17T16:03:44.845Z,4
2017-01-17T16:04:55.059Z,4
2017-01-17T16:06:04.339Z,4
2017-01-17T16:07:14.064Z,0
2017-01-17T16:08:23.342Z,4
2017-01-17T16:09:33.055Z,4
2017-01-17T16:10:43.269Z,0
2017-01-17T16:11:53.430Z,0
2017-01-17T16:13:03.159Z,0
2017-01-17T16:14:13.324Z,0
2017-01-17T16:15:23.498Z,0
2017-01-17T16:16:36.767Z,0
2017-01-17T16:17:46.489Z,0
2017-01-17T16:18:57.094Z,0
2017-01-17T16:20:06.832Z,0
2017-01-17T16:21:16.117Z,0
2017-01-17T16:22:25.891Z,0
2017-01-17T16:23:36.060Z,0